Time;durP1;ratioP1;P1;durP2;ratioP2;P2;SDS_P1;SDS_P2;PMS_P1;PMS_P2;Temp;Humidity;BMP_temperature;BMP_pressure;BME280_temperature;BME280_humidity;BME280_pressure;Samples;Min_cycle;Max_cycle;Signal;HPM_P1;HPM_P2
2024/02/02 00:02:02;;;;;;;40.05;22.38;;;2.30;99.90;;;;;;5032560;28;20366;-74
2024/02/02 00:04:28;;;;;;;;;;;2.20;99.90;;;;;;5015419;28;20037;-75
2024/02/02 00:06:53;;;;;;;53.42;29.83;;;2.20;99.90;;;;;;5032873;28;19955;-75
2024/02/02 00:09:19;;;;;;;;;;;2.10;99.90;;;;;;5016577;28;20120;-75
2024/02/02 00:11:46;;;;;;;52.00;29.20;;;2.00;99.90;;;;;;5032767;28;19920;-74
2024/02/02 00:14:11;;;;;;;52.70;31.67;;;2.00;99.90;;;;;;5032153;28;20075;-74
2024/02/02 00:16:37;;;;;;;;;;;1.80;99.90;;;;;;5032726;28;20436;-74
2024/02/02 00:19:03;;;;;;;70.22;40.20;;;1.80;99.90;;;;;;5014858;28;19912;-75
2024/02/02 00:21:29;;;;;;;74.22;43.15;;;1.80;99.90;;;;;;5032208;28;20108;-74
2024/02/02 00:23:55;;;;;;;;;;;1.80;99.90;;;;;;5014688;28;20175;-74
2024/02/02 00:26:20;;;;;;;78.65;44.35;;;1.70;99.90;;;;;;5032364;28;19905;-74
2024/02/02 00:28:46;;;;;;;;;;;1.60;99.90;;;;;;5032415;28;20064;-75
2024/02/02 00:31:11;;;;;;;72.78;40.97;;;1.50;99.90;;;;;;5014519;28;19912;-75
2024/02/02 00:33:37;;;;;;;;;;;1.50;99.90;;;;;;5014878;28;20031;-74
2024/02/02 00:36:05;;;;;;;62.58;38.80;;;1.40;99.90;;;;;;5014489;28;19971;-75
2024/02/02 00:38:31;;;;;;;80.20;43.90;;;1.30;99.90;;;;;;5032336;28;20478;-75
2024/02/02 00:40:56;;;;;;;;;;;1.30;99.90;;;;;;5032541;28;20032;-75
2024/02/02 00:43:22;;;;;;;77.70;43.40;;;1.20;99.90;;;;;;5031036;28;19924;-75
2024/02/02 00:45:48;;;;;;;;;;;1.10;99.90;;;;;;5015254;28;20035;-75
2024/02/02 00:48:13;;;;;;;76.30;42.90;;;1.10;99.90;;;;;;5015460;28;20625;-74
2024/02/02 00:50:39;;;;;;;;;;;1.20;99.90;;;;;;5016478;28;20513;-74
2024/02/02 00:53:04;;;;;;;72.40;40.85;;;1.10;99.90;;;;;;5016094;28;20127;-75
2024/02/02 00:55:30;;;;;;;;;;;1.00;99.90;;;;;;5015914;28;20033;-75
2024/02/02 00:57:55;;;;;;;73.78;41.05;;;1.10;99.90;;;;;;5015248;28;19909;-74
2024/02/02 01:00:21;;;;;;;;;;;1.00;99.90;;;;;;5034017;28;20108;-74
2024/02/02 01:02:47;;;;;;;80.57;43.58;;;1.00;99.90;;;;;;5015292;28;19967;-75
2024/02/02 01:05:13;;;;;;;;;;;0.90;99.90;;;;;;5035147;28;20133;-76
2024/02/02 01:07:39;;;;;;;72.78;39.28;;;0.90;99.90;;;;;;5014818;28;19920;-74
2024/02/02 01:10:05;;;;;;;;;;;0.90;99.90;;;;;;5031859;28;20030;-75
2024/02/02 01:12:32;;;;;;;68.75;41.38;;;0.90;99.90;;;;;;5013292;28;20523;-74
2024/02/02 01:14:57;;;;;;;87.45;48.10;;;0.80;99.90;;;;;;5030882;28;20503;-74
2024/02/02 01:17:23;;;;;;;;;;;0.90;99.90;;;;;;5013394;28;20018;-74
2024/02/02 01:19:49;;;;;;;87.20;43.75;;;0.90;99.90;;;;;;5013069;28;19905;-75
2024/02/02 01:22:15;;;;;;;85.97;45.80;;;1.00;99.90;;;;;;5030951;28;20410;-74
2024/02/02 01:24:40;;;;;;;;;;;0.90;99.90;;;;;;5031294;28;20038;-75
2024/02/02 01:27:06;;;;;;;77.90;43.47;;;0.90;99.90;;;;;;5012864;28;20012;-74
2024/02/02 01:29:33;;;;;;;;;;;0.90;99.90;;;;;;5031356;28;20129;-74
2024/02/02 01:31:59;;;;;;;70.47;40.72;;;0.80;99.90;;;;;;5030779;28;19905;-74
2024/02/02 01:34:24;;;;;;;;;;;0.90;99.90;;;;;;5030801;28;20040;-75
2024/02/02 01:36:51;;;;;;;84.57;47.83;;;0.80;99.90;;;;;;5012904;28;20016;-75
2024/02/02 01:39:17;;;;;;;85.43;47.08;;;0.90;99.90;;;;;;5013219;28;20112;-74
2024/02/02 01:41:43;;;;;;;;;;;0.70;99.90;;;;;;5031319;28;20142;-74
2024/02/02 01:44:09;;;;;;;81.03;45.67;;;0.70;99.90;;;;;;5031206;28;19916;-74
2024/02/02 01:46:35;;;;;;;;;;;0.70;99.90;;;;;;5030769;28;20030;-75
2024/02/02 01:49:01;;;;;;;95.35;51.00;;;0.60;99.90;;;;;;5030790;28;19908;-75
2024/02/02 01:51:26;;;;;;;100.82;53.83;;;0.70;99.90;;;;;;5030960;28;20498;-75
2024/02/02 01:53:52;;;;;;;;;;;0.80;99.90;;;;;;5030480;28;20044;-75
2024/02/02 01:56:18;;;;;;;99.68;52.67;;;0.70;99.90;;;;;;5030714;28;19909;-75
2024/02/02 01:58:44;;;;;;;;;;;0.70;99.90;;;;;;5013364;28;20029;-74
2024/02/02 02:01:10;;;;;;;94.70;52.30;;;0.70;99.90;;;;;;5012682;28;19909;-74
2024/02/02 02:03:36;;;;;;;91.00;49.13;;;0.70;99.90;;;;;;5030782;28;20052;-75
2024/02/02 02:06:01;;;;;;;;;;;0.70;99.90;;;;;;5031374;28;20014;-75
2024/02/02 02:08:27;;;;;;;82.20;43.65;;;0.70;99.90;;;;;;5012978;28;19909;-74
2024/02/02 02:10:53;;;;;;;;;;;0.70;99.90;;;;;;5013786;28;20029;-74
2024/02/02 02:13:18;;;;;;;68.80;36.80;;;0.60;99.90;;;;;;5014002;28;20365;-75
2024/02/02 02:15:44;;;;;;;;;;;0.90;99.90;;;;;;5015229;28;20537;-75
2024/02/02 02:18:09;;;;;;;59.67;32.50;;;0.90;99.90;;;;;;5012845;28;19955;-75
2024/02/02 02:20:36;;;;;;;;;;;0.90;99.90;;;;;;5012848;28;20512;-75
2024/02/02 02:23:03;;;;;;;60.67;31.95;;;0.70;99.90;;;;;;5029832;28;19916;-74
2024/02/02 02:25:29;;;;;;;54.33;32.13;;;0.80;99.90;;;;;;5029794;28;20040;-75
2024/02/02 02:27:54;;;;;;;61.85;34.97;;;0.90;99.90;;;;;;5012285;28;20032;-73
2024/02/02 02:30:20;;;;;;;;;;;0.80;99.90;;;;;;5012346;28;20124;-74
2024/02/02 02:32:45;;;;;;;66.20;37.30;;;0.90;99.90;;;;;;5029266;28;19909;-74
2024/02/02 02:35:11;;;;;;;;;;;0.80;99.90;;;;;;5012876;28;20087;-75
2024/02/02 02:37:37;;;;;;;79.85;41.03;;;0.70;99.90;;;;;;5012066;28;19909;-74
2024/02/02 02:40:03;;;;;;;;;;;0.70;99.90;;;;;;5030363;28;20039;-74
2024/02/02 02:42:28;;;;;;;72.55;40.20;;;0.60;99.90;;;;;;5012046;28;19913;-74
2024/02/02 02:44:54;;;;;;;;;;;0.60;99.90;;;;;;5030233;28;20061;-75
2024/02/02 02:47:20;;;;;;;71.55;39.40;;;0.60;99.90;;;;;;5011892;28;20007;-74
2024/02/02 02:49:45;;;;;;;;;;;0.60;99.90;;;;;;5011803;28;20557;-74
2024/02/02 02:52:11;;;;;;;73.28;39.10;;;0.50;99.90;;;;;;5011508;28;19955;-75
2024/02/02 02:54:36;;;;;;;75.53;41.80;;;0.60;99.90;;;;;;5029170;28;20022;-74
2024/02/02 02:57:02;;;;;;;;;;;0.50;99.90;;;;;;5012075;28;20041;-74
2024/02/02 02:59:30;;;;;;;63.45;35.90;;;0.40;99.90;;;;;;5029597;28;19951;-75
2024/02/02 03:01:56;;;;;;;66.47;36.03;;;0.60;99.90;;;;;;5012022;28;20018;-75
2024/02/02 03:04:22;;;;;;;55.75;32.63;;;0.50;99.90;;;;;;5012242;28;20450;-75
2024/02/02 03:06:48;;;;;;;;;;;0.60;99.90;;;;;;5033314;28;20509;-74
2024/02/02 03:09:14;;;;;;;58.03;32.08;;;0.60;99.90;;;;;;5016800;28;19967;-75
2024/02/02 03:11:40;;;;;;;77.82;41.95;;;0.70;99.90;;;;;;5016265;28;20025;-74
2024/02/02 03:14:05;;;;;;;;;;;0.70;99.90;;;;;;5034826;28;20040;-75
2024/02/02 03:16:31;;;;;;;69.10;38.63;;;0.70;99.90;;;;;;5015641;28;19909;-75
2024/02/02 03:18:57;;;;;;;;;;;0.60;99.90;;;;;;5033852;28;20033;-74
2024/02/02 03:21:22;;;;;;;67.03;36.67;;;0.70;99.90;;;;;;5015596;28;19909;-74
2024/02/02 03:23:48;;;;;;;;;;;0.90;99.90;;;;;;5033878;28;20041;-74
2024/02/02 03:26:14;;;;;;;58.35;33.35;;;0.80;99.90;;;;;;5015399;28;19909;-74
2024/02/02 03:28:39;;;;;;;;;;;0.70;99.90;;;;;;5015869;28;20038;-74
2024/02/02 03:31:06;;;;;;;67.07;36.40;;;0.70;99.90;;;;;;5033586;28;19913;-75
2024/02/02 03:33:32;;;;;;;68.63;37.45;;;0.70;99.90;;;;;;5016283;28;20026;-74
2024/02/02 03:35:58;;;;;;;;;;;0.80;99.90;;;;;;5016515;28;20029;-74
2024/02/02 03:38:23;;;;;;;67.85;36.83;;;0.70;99.90;;;;;;5016167;28;19909;-75
2024/02/02 03:40:49;;;;;;;;;;;0.70;99.90;;;;;;5016777;28;20021;-74
2024/02/02 03:43:14;;;;;;;70.32;40.83;;;0.70;99.90;;;;;;5033828;28;19927;-75
2024/02/02 03:45:40;;;;;;;;;;;0.70;99.90;;;;;;5016686;28;20079;-75
2024/02/02 03:48:06;;;;;;;72.90;40.17;;;0.80;99.90;;;;;;5016381;28;19948;-75
2024/02/02 03:50:32;;;;;;;96.60;51.15;;;0.90;99.90;;;;;;5034673;28;20025;-75
2024/02/02 03:53:00;;;;;;;;;;;0.80;99.90;;;;;;5018129;28;20028;-75
2024/02/02 03:55:26;;;;;;;82.78;44.40;;;0.80;99.90;;;;;;5036478;28;19963;-75
2024/02/02 03:57:51;;;;;;;78.78;44.58;;;0.80;99.90;;;;;;5017460;28;20083;-75
2024/02/02 04:00:17;;;;;;;;;;;0.70;99.90;;;;;;5034304;28;20029;-74
2024/02/02 04:02:47;;;;;;;86.93;47.00;;;0.70;99.90;;;;;;5032783;28;19913;-75
2024/02/02 04:05:14;;;;;;;87.22;49.50;;;0.70;99.90;;;;;;5016211;28;20557;-75
2024/02/02 04:07:39;;;;;;;91.70;50.53;;;0.80;99.90;;;;;;5033326;28;20544;-74
2024/02/02 04:10:06;;;;;;;;;;;0.80;99.90;;;;;;5033945;28;20029;-75
2024/02/02 04:12:32;;;;;;;87.38;48.95;;;0.90;99.90;;;;;;5032609;28;20370;-74
2024/02/02 04:14:58;;;;;;;;;;;0.80;99.90;;;;;;5015100;28;20044;-74
2024/02/02 04:17:23;;;;;;;93.80;49.97;;;0.80;99.90;;;;;;5014785;28;19908;-74
2024/02/02 04:19:49;;;;;;;;;;;0.80;99.90;;;;;;5033971;28;20579;-75
2024/02/02 04:22:16;;;;;;;91.88;51.38;;;0.80;99.90;;;;;;5034069;28;19909;-75
2024/02/02 04:24:43;;;;;;;88.63;50.72;;;0.80;99.90;;;;;;5015795;28;20037;-75
2024/02/02 04:27:09;;;;;;;84.00;49.03;;;0.90;99.90;;;;;;5031734;28;20034;-75
2024/02/02 04:29:35;;;;;;;;;;;0.90;99.90;;;;;;5031819;28;20026;-75
2024/02/02 04:32:00;;;;;;;81.47;46.53;;;1.00;99.90;;;;;;5031524;28;20374;-75
2024/02/02 04:34:26;;;;;;;;;;;1.10;99.90;;;;;;5014012;28;20398;-74
2024/02/02 04:36:51;;;;;;;68.38;37.50;;;1.10;99.90;;;;;;5031184;28;19908;-74
2024/02/02 04:39:17;;;;;;;;;;;1.10;99.90;;;;;;5031445;28;20508;-74
2024/02/02 04:41:42;;;;;;;67.53;39.33;;;1.10;99.90;;;;;;5031566;28;19909;-74
2024/02/02 04:44:08;;;;;;;;;;;1.20;99.90;;;;;;5013864;28;20052;-75
2024/02/02 04:46:33;;;;;;;72.35;37.63;;;1.10;99.90;;;;;;5031121;28;20289;-74
2024/02/02 04:48:59;;;;;;;;;;;1.10;99.90;;;;;;5031969;28;20160;-74
2024/02/02 04:51:24;;;;;;;71.25;35.17;;;1.20;99.90;;;;;;5013564;28;19905;-75
2024/02/02 04:53:50;;;;;;;;;;;1.10;99.90;;;;;;5031805;28;20409;-74
2024/02/02 04:56:16;;;;;;;58.58;31.55;;;1.10;99.90;;;;;;5031349;28;19931;-75
2024/02/02 04:58:41;;;;;;;;;;;1.00;99.90;;;;;;5031703;28;20425;-73
2024/02/02 05:01:07;;;;;;;47.60;24.95;;;1.10;99.90;;;;;;5031311;28;19905;-75
2024/02/02 05:03:33;;;;;;;41.95;22.65;;;1.00;99.90;;;;;;5031108;28;20030;-74
2024/02/02 05:05:58;;;;;;;;;;;1.10;99.90;;;;;;5014170;28;20457;-74
2024/02/02 05:08:24;;;;;;;36.08;19.83;;;1.10;99.90;;;;;;5013361;28;19905;-75
2024/02/02 05:10:49;;;;;;;;;;;1.20;99.90;;;;;;5013857;28;20084;-75
2024/02/02 05:13:15;;;;;;;28.42;14.65;;;1.20;99.90;;;;;;5031300;28;19909;-74
2024/02/02 05:15:40;;;;;;;;;;;1.30;99.90;;;;;;5013710;28;20079;-74
2024/02/02 05:18:10;;;;;;;19.73;10.48;;;1.20;99.90;;;;;;5013455;28;20365;-75
2024/02/02 05:20:36;;;;;;;22.90;10.93;;;1.20;99.90;;;;;;5013335;28;20087;-75
2024/02/02 05:23:02;;;;;;;27.60;9.30;;;1.10;99.90;;;;;;5031044;28;20041;-74
2024/02/02 05:25:27;;;;;;;;;;;1.20;99.90;;;;;;5031319;28;20100;-74
2024/02/02 05:27:53;;;;;;;19.08;7.05;;;1.20;99.90;;;;;;5030613;28;19916;-75
2024/02/02 05:30:20;;;;;;;;;;;1.40;99.90;;;;;;5013097;28;20065;-74
2024/02/02 05:32:45;;;;;;;15.70;5.85;;;1.40;99.90;;;;;;5013016;28;19939;-75
2024/02/02 05:35:11;;;;;;;;;;;1.40;99.90;;;;;;5031246;28;20026;-74
2024/02/02 05:37:36;;;;;;;20.45;6.78;;;1.50;99.90;;;;;;5012916;28;19909;-74
2024/02/02 05:40:03;;;;;;;;;;;1.60;99.90;;;;;;5013283;28;20029;-74
2024/02/02 05:42:28;;;;;;;13.48;4.43;;;1.70;99.90;;;;;;5012802;28;19970;-74
2024/02/02 05:44:54;;;;;;;;;;;1.80;99.90;;;;;;5031084;28;20445;-75
2024/02/02 05:47:20;;;;;;;10.43;3.40;;;2.00;99.90;;;;;;5030524;28;19913;-74
2024/02/02 05:49:45;;;;;;;;;;;2.10;99.90;;;;;;5012927;28;20034;-74
2024/02/02 05:52:11;;;;;;;10.82;4.28;;;2.10;99.90;;;;;;5030354;28;19909;-74
2024/02/02 05:54:37;;;;;;;;;;;2.10;99.90;;;;;;5030563;28;20036;-75
2024/02/02 05:57:02;;;;;;;12.02;5.20;;;2.20;99.90;;;;;;5016222;28;19909;-74
2024/02/02 05:59:28;;;;;;;;;;;2.10;99.90;;;;;;5017470;28;20034;-74
2024/02/02 06:01:54;;;;;;;13.07;5.15;;;2.10;99.90;;;;;;5012518;28;19909;-74
2024/02/02 06:04:19;;;;;;;;;;;2.20;99.90;;;;;;5030252;28;20046;-75
2024/02/02 06:06:45;;;;;;;18.88;6.28;;;2.10;99.90;;;;;;5030686;28;20412;-74
2024/02/02 06:09:11;;;;;;;;;;;2.30;99.90;;;;;;5013402;28;20498;-74
2024/02/02 06:11:37;;;;;;;8.07;2.85;;;2.20;99.90;;;;;;5008214;28;19959;-75
2024/02/02 06:14:02;;;;;;;9.93;2.78;;;2.30;99.90;;;;;;5030527;28;20036;-74
2024/02/02 06:16:28;;;;;;;;;;;2.20;99.90;;;;;;5012008;28;20025;-74
2024/02/02 06:18:54;;;;;;;14.98;4.13;;;2.20;99.90;;;;;;5029961;28;19928;-74
2024/02/02 06:21:20;;;;;;;;;;;2.30;99.90;;;;;;5030501;28;20099;-74
2024/02/02 06:23:45;;;;;;;15.15;3.30;;;2.40;99.90;;;;;;5013034;28;19925;-74
2024/02/02 06:26:11;;;;;;;;;;;2.40;99.90;;;;;;5031729;28;20391;-75
2024/02/02 06:28:37;;;;;;;10.10;3.05;;;2.40;99.90;;;;;;5013721;28;19909;-75
2024/02/02 06:31:03;;;;;;;;;;;2.40;99.90;;;;;;5031498;28;20036;-76
2024/02/02 06:33:29;;;;;;;18.42;7.00;;;2.50;99.90;;;;;;5012210;28;19916;-74
2024/02/02 06:35:54;;;;;;;;;;;2.60;99.90;;;;;;5029716;28;20025;-74
2024/02/02 06:38:20;;;;;;;17.23;5.88;;;2.60;99.90;;;;;;5011236;28;20373;-75
2024/02/02 06:40:45;;;;;;;;;;;2.70;99.90;;;;;;5011904;28;20127;-75
2024/02/02 06:43:11;;;;;;;13.80;6.68;;;2.80;99.90;;;;;;5028598;28;19964;-75
2024/02/02 06:45:37;;;;;;;;;;;2.90;99.90;;;;;;5027963;28;20057;-75
2024/02/02 06:48:03;;;;;;;22.75;9.25;;;2.80;99.90;;;;;;5027619;28;19909;-74
2024/02/02 06:50:30;;;;;;;;;;;2.90;99.90;;;;;;5028880;28;20451;-74
2024/02/02 06:52:56;;;;;;;25.15;9.20;;;3.20;99.90;;;;;;5028228;28;19960;-75
2024/02/02 06:55:21;;;;;;;;;;;3.20;99.90;;;;;;5028948;28;20107;-74
2024/02/02 06:57:47;;;;;;;53.17;21.58;;;3.30;99.90;;;;;;5026417;28;19960;-75
2024/02/02 07:00:14;;;;;;;;;;;3.30;99.90;;;;;;5011093;28;20029;-75
2024/02/02 07:02:39;;;;;;;41.63;15.55;;;3.20;99.90;;;;;;5028214;28;19975;-75
2024/02/02 07:05:05;;;;;;;;;;;3.20;99.90;;;;;;5028051;28;20457;-75
2024/02/02 07:07:31;;;;;;;31.65;12.90;;;3.10;99.90;;;;;;5010723;28;19963;-74
2024/02/02 07:09:56;;;;;;;;;;;3.00;99.90;;;;;;5008629;28;20516;-75
2024/02/02 07:12:24;;;;;;;26.75;10.27;;;3.00;99.90;;;;;;5015405;28;19928;-75
2024/02/02 07:14:50;;;;;;;20.40;6.93;;;3.10;99.90;;;;;;4999054;28;20121;-75
2024/02/02 07:17:16;;;;;;;;;;;3.20;99.90;;;;;;4991263;28;20170;-75
2024/02/02 07:19:42;;;;;;;16.85;5.60;;;3.10;99.90;;;;;;5019735;28;19916;-74
2024/02/02 07:22:33;;;;;;;;;;;3.20;99.90;;;;;;5012552;28;20045;-75
2024/02/02 07:24:59;;;;;;;10.65;3.60;;;3.40;99.90;;;;;;5002890;28;19948;-74
2024/02/02 07:30:53;;;;;;;16.80;5.60;;;3.60;99.90;;;;;;5008150;28;20309;-74
2024/02/02 07:33:24;;;;;;;17.25;6.30;;;4.10;99.90;;;;;;5008176;28;20022;-75
2024/02/02 07:35:50;;;;;;;13.98;4.68;;;4.40;99.90;;;;;;5016217;28;20033;-74
2024/02/02 07:38:46;;;;;;;10.95;3.42;;;4.70;99.90;;;;;;5028262;28;20033;-74
2024/02/02 07:41:18;;;;;;;13.70;4.22;;;5.40;99.90;;;;;;4999867;28;20411;-75
2024/02/02 07:43:44;;;;;;;14.00;4.82;;;6.20;99.90;;;;;;4960213;28;1358618;-75
2024/02/02 07:46:10;;;;;;;14.95;4.70;;;7.00;99.90;;;;;;4999015;28;20529;-75
2024/02/02 07:48:37;;;;;;;14.60;4.45;;;7.80;99.10;;;;;;5028845;28;20062;-74
2024/02/02 07:51:04;;;;;;;13.15;4.45;;;8.40;93.50;;;;;;5010749;28;20029;-75
2024/02/02 07:53:29;;;;;;;14.52;4.90;;;8.80;86.90;;;;;;5014218;28;20033;-74
2024/02/02 07:55:55;;;;;;;;;;;9.00;87.40;;;;;;5032997;28;20039;-75
2024/02/02 07:58:20;;;;;;;23.75;7.43;;;8.80;80.90;;;;;;5014854;28;20392;-75
2024/02/02 08:00:46;;;;;;;;;;;8.50;80.00;;;;;;5031879;28;20489;-75
2024/02/02 08:03:12;;;;;;;6.70;1.58;;;8.10;80.40;;;;;;5014067;28;19917;-75
2024/02/02 08:05:38;;;;;;;;;;;7.80;82.00;;;;;;5014787;28;20033;-74
2024/02/02 08:08:04;;;;;;;9.45;2.38;;;7.60;83.50;;;;;;5031946;28;19905;-74
2024/02/02 08:10:30;;;;;;;13.30;2.38;;;7.60;82.80;;;;;;5024421;28;20060;-74
2024/02/02 08:12:56;;;;;;;;;;;7.70;82.10;;;;;;5021145;28;20041;-74
2024/02/02 08:15:22;;;;;;;9.30;2.55;;;7.90;83.00;;;;;;5013842;28;20293;-75
2024/02/02 08:17:48;;;;;;;;;;;8.10;81.40;;;;;;5014441;28;20056;-74
2024/02/02 08:20:15;;;;;;;11.07;1.73;;;8.30;80.80;;;;;;5015101;28;20364;-75
2024/02/02 08:22:43;;;;;;;3.95;1.02;;;8.60;79.10;;;;;;5032810;28;20371;-75
2024/02/02 08:25:09;;;;;;;12.38;1.83;;;8.70;76.50;;;;;;5015753;28;20033;-74
2024/02/02 08:27:35;;;;;;;6.43;1.50;;;8.70;76.40;;;;;;5033703;28;20162;-75
2024/02/02 08:30:01;;;;;;;;;;;8.70;77.60;;;;;;5032879;28;20136;-72
2024/02/02 08:32:27;;;;;;;7.30;1.90;;;8.50;77.00;;;;;;5014503;28;19964;-75
2024/02/02 08:34:52;;;;;;;;;;;8.30;77.40;;;;;;5032261;28;20033;-75
2024/02/02 08:37:19;;;;;;;9.38;1.38;;;8.20;78.60;;;;;;5031463;28;19909;-75
2024/02/02 08:39:44;;;;;;;10.57;2.00;;;8.20;79.30;;;;;;5013918;28;20514;-74
2024/02/02 08:42:16;;;;;;;;;;;8.40;77.60;;;;;;5031195;28;20053;-75
2024/02/02 08:44:42;;;;;;;10.88;1.77;;;8.70;76.20;;;;;;5032130;28;19917;-75
2024/02/02 08:47:07;;;;;;;;;;;9.00;75.40;;;;;;5015282;28;20486;-75
2024/02/02 08:49:56;;;;;;;7.50;1.25;;;9.30;73.70;;;;;;5025144;28;20397;-74
2024/02/02 08:52:33;;;;;;;14.85;1.95;;;9.80;72.10;;;;;;5030217;28;20029;-74
2024/02/02 08:54:59;;;;;;;;;;;10.40;67.60;;;;;;5031202;28;20025;-74
2024/02/02 08:57:47;;;;;;;9.95;1.60;;;10.90;64.10;;;;;;5031054;28;19909;-74
2024/02/02 09:00:31;;;;;;;7.95;1.75;;;11.40;62.50;;;;;;5030968;28;20037;-75
2024/02/02 09:03:35;;;;;;;8.55;2.03;;;11.80;60.70;;;;;;5026210;28;20038;-74
2024/02/02 09:06:04;;;;;;;7.18;1.25;;;11.90;58.40;;;;;;5024591;28;20430;-75
2024/02/02 09:08:41;;;;;;;8.70;1.85;;;11.70;56.50;;;;;;5012663;28;20132;-74
2024/02/02 09:11:17;;;;;;;7.50;1.77;;;11.50;56.90;;;;;;5012733;28;20033;-74
2024/02/02 09:13:46;;;;;;;7.10;2.00;;;11.20;56.60;;;;;;5013220;28;20117;-75
2024/02/02 09:16:14;;;;;;;10.57;2.47;;;11.00;56.30;;;;;;5013098;28;20037;-75
2024/02/02 09:18:44;;;;;;;9.38;2.15;;;10.90;57.40;;;;;;5030699;28;20525;-75
2024/02/02 09:21:12;;;;;;;7.68;1.92;;;10.60;58.30;;;;;;5030797;28;20026;-74
2024/02/02 09:23:45;;;;;;;6.78;1.65;;;10.30;58.30;;;;;;5012753;28;20047;-74
2024/02/02 09:26:11;;;;;;;9.23;1.67;;;10.20;59.50;;;;;;5012769;28;20137;-74
2024/02/02 09:28:41;;;;;;;9.02;2.30;;;10.00;60.30;;;;;;5012749;28;20025;-75
2024/02/02 09:31:22;;;;;;;6.22;1.83;;;9.80;61.70;;;;;;5030665;28;20025;-74
2024/02/02 09:33:53;;;;;;;8.50;1.42;;;9.60;62.70;;;;;;5011768;28;20029;-74
2024/02/02 09:36:25;;;;;;;9.93;1.92;;;9.40;63.70;;;;;;5029157;28;20113;-74
2024/02/02 09:38:58;;;;;;;9.13;2.20;;;9.30;64.30;;;;;;5012444;28;20140;-74
2024/02/02 09:41:47;;;;;;;11.48;2.05;;;9.10;65.30;;;;;;5030301;28;20422;-74
2024/02/02 09:44:44;;;;;;;6.70;1.52;;;9.10;67.20;;;;;;5030194;28;20052;-74
2024/02/02 09:47:43;;;;;;;7.95;1.98;;;9.10;67.70;;;;;;5012165;28;20033;-75
2024/02/02 09:50:27;;;;;;;8.15;2.40;;;9.20;67.70;;;;;;5013422;28;20040;-74
2024/02/02 09:53:12;;;;;;;11.77;2.03;;;9.10;67.50;;;;;;5031132;28;20033;-74
2024/02/02 09:55:56;;;;;;;8.63;1.60;;;9.10;68.80;;;;;;5030805;28;20037;-73
2024/02/02 09:59:11;;;;;;;9.57;2.17;;;9.00;68.90;;;;;;5012118;28;20028;-75
2024/02/02 10:01:51;;;;;;;11.15;2.92;;;9.00;68.20;;;;;;5012550;28;20033;-74
2024/02/02 10:04:31;;;;;;;10.93;2.33;;;9.00;68.50;;;;;;5029905;28;20466;-74
2024/02/02 10:07:12;;;;;;;10.25;1.55;;;8.80;66.30;;;;;;5012007;28;20056;-75
2024/02/02 10:10:15;;;;;;;6.32;1.40;;;8.70;65.80;;;;;;5011969;28;20045;-75
2024/02/02 10:13:17;;;;;;;7.20;1.92;;;8.60;69.10;;;;;;5029748;28;20662;-75
2024/02/02 10:16:10;;;;;;;11.30;1.98;;;8.60;70.70;;;;;;5011624;28;20107;-74
2024/02/02 10:18:55;;;;;;;7.90;1.95;;;8.60;70.90;;;;;;5029799;28;20104;-74
2024/02/02 10:21:40;;;;;;;9.48;1.27;;;8.50;73.10;;;;;;5011840;28;20063;-74
2024/02/02 10:24:23;;;;;;;6.72;1.60;;;8.50;72.60;;;;;;5011909;28;20141;-74
2024/02/02 10:27:20;;;;;;;9.73;1.77;;;8.50;72.30;;;;;;5011751;28;20192;-74
2024/02/02 10:30:17;;;;;;;7.07;1.33;;;8.50;71.30;;;;;;5029614;28;20030;-74
2024/02/02 10:32:43;;;;;;;13.68;1.65;;;8.60;69.10;;;;;;5011616;28;20042;-74
2024/02/02 10:35:26;;;;;;;;;;;8.40;68.20;;;;;;5012263;28;20033;-74
2024/02/02 10:37:52;;;;;;;7.00;1.08;;;8.30;69.00;;;;;;5029218;28;19904;-74
2024/02/02 10:40:36;;;;;;;;;;;8.20;69.00;;;;;;5012248;28;20125;-75
2024/02/02 10:43:05;;;;;;;6.13;1.42;;;8.20;70.40;;;;;;5029099;28;19968;-74
2024/02/02 10:45:33;;;;;;;6.20;1.05;;;8.20;72.30;;;;;;5011794;28;20033;-75
2024/02/02 10:48:35;;;;;;;5.20;1.20;;;8.30;70.40;;;;;;5029502;28;20036;-74
2024/02/02 10:51:03;;;;;;;8.38;1.48;;;8.30;68.50;;;;;;5011712;28;20099;-74
2024/02/02 10:53:59;;;;;;;7.07;1.20;;;8.20;68.80;;;;;;5029319;28;20022;-75
2024/02/02 10:56:44;;;;;;;8.48;2.33;;;8.20;67.30;;;;;;5003725;28;20030;-74
2024/02/02 10:59:29;;;;;;;13.57;1.27;;;8.20;67.20;;;;;;5029677;28;20084;-74
2024/02/02 11:02:03;;;;;;;4.80;1.38;;;8.30;65.70;;;;;;5030843;28;20026;-73
2024/02/02 11:04:50;;;;;;;10.60;1.08;;;8.20;66.00;;;;;;5012386;28;20044;-74
2024/02/02 11:07:24;;;;;;;4.70;1.13;;;8.20;65.70;;;;;;5011091;28;20026;-74
2024/02/02 11:10:10;;;;;;;8.82;1.30;;;8.20;67.70;;;;;;5011060;28;20817;-74
2024/02/02 11:12:42;;;;;;;6.00;1.15;;;8.30;70.70;;;;;;5028964;28;20026;-75
2024/02/02 11:15:19;;;;;;;5.68;1.02;;;8.40;70.30;;;;;;5028825;28;20072;-75
2024/02/02 11:18:01;;;;;;;5.63;1.00;;;8.40;68.60;;;;;;5011043;28;20091;-74
2024/02/02 11:20:46;;;;;;;17.25;2.85;;;8.40;69.50;;;;;;5028563;28;20025;-73
2024/02/02 11:23:22;;;;;;;10.52;1.50;;;8.50;69.20;;;;;;5028594;28;20521;-74
2024/02/02 11:25:59;;;;;;;8.50;1.25;;;8.50;65.90;;;;;;5028506;28;20040;-74
2024/02/02 11:28:45;;;;;;;5.47;1.58;;;8.30;68.40;;;;;;5014591;28;20083;-74
2024/02/02 11:31:25;;;;;;;16.10;1.80;;;8.40;68.30;;;;;;5014968;28;20034;-74
2024/02/02 11:34:34;;;;;;;11.30;1.60;;;8.50;66.80;;;;;;5014874;28;20036;-75
2024/02/02 11:37:17;;;;;;;5.22;1.55;;;8.40;67.10;;;;;;5018091;28;20450;-75
2024/02/02 11:40:01;;;;;;;7.22;1.98;;;8.50;68.60;;;;;;5032443;28;20022;-74
2024/02/02 11:42:29;;;;;;;6.72;1.35;;;8.40;67.00;;;;;;5014130;28;20528;-74
2024/02/02 11:44:57;;;;;;;9.07;1.58;;;8.40;68.50;;;;;;5014517;28;20045;-74
2024/02/02 11:47:23;;;;;;;13.00;2.15;;;8.40;67.20;;;;;;5014655;28;20036;-74
2024/02/02 11:50:06;;;;;;;10.88;1.50;;;8.40;68.40;;;;;;5014689;28;20029;-74
2024/02/02 11:52:38;;;;;;;6.18;1.02;;;8.50;68.00;;;;;;5032419;28;20022;-74
2024/02/02 11:55:22;;;;;;;7.00;0.93;;;8.40;66.30;;;;;;5032398;28;20032;-75
2024/02/02 11:57:59;;;;;;;10.02;1.40;;;8.40;67.10;;;;;;5032282;28;20029;-74
2024/02/02 12:00:39;;;;;;;12.07;1.20;;;8.40;67.30;;;;;;5032381;28;20780;-74
2024/02/02 12:03:19;;;;;;;6.55;1.10;;;8.40;66.40;;;;;;5014349;28;20030;-74
2024/02/02 12:05:54;;;;;;;7.07;1.48;;;8.50;65.30;;;;;;5032151;28;20025;-75
2024/02/02 12:08:33;;;;;;;10.90;1.98;;;8.50;64.30;;;;;;5014428;28;20080;-74
2024/02/02 12:11:00;;;;;;;11.88;1.60;;;8.50;63.10;;;;;;5014167;28;20029;-74
2024/02/02 12:13:31;;;;;;;9.55;1.40;;;8.50;65.30;;;;;;5032029;28;20029;-75
2024/02/02 12:15:57;;;;;;;15.13;4.40;;;8.50;65.70;;;;;;5014431;28;20029;-74
2024/02/02 12:18:23;;;;;;;15.63;4.50;;;8.40;63.30;;;;;;5032105;28;20033;-75
2024/02/02 12:20:49;;;;;;;;;;;8.40;62.30;;;;;;5032546;28;20486;-75
2024/02/02 12:23:15;;;;;;;11.27;3.33;;;8.40;62.90;;;;;;5032085;28;19917;-74
2024/02/02 12:25:41;;;;;;;8.38;1.38;;;8.40;63.80;;;;;;5031858;28;20057;-75
2024/02/02 12:28:07;;;;;;;;;;;8.40;62.00;;;;;;5032309;28;20049;-74
2024/02/02 12:30:33;;;;;;;11.07;3.28;;;8.40;62.50;;;;;;5032099;28;20385;-74
2024/02/02 12:32:59;;;;;;;;;;;8.30;63.30;;;;;;5032300;28;20072;-74
2024/02/02 12:35:25;;;;;;;28.10;11.77;;;8.30;63.30;;;;;;5014253;28;19915;-75
2024/02/02 12:37:52;;;;;;;11.73;3.40;;;8.40;64.40;;;;;;5025710;28;20116;-74
2024/02/02 12:40:25;;;;;;;27.45;11.48;;;8.30;63.10;;;;;;5021634;28;20518;-74
2024/02/02 12:42:52;;;;;;;22.27;8.07;;;8.40;63.20;;;;;;5012861;28;20088;-74
2024/02/02 12:45:18;;;;;;;91.50;45.50;;;8.40;60.80;;;;;;5031191;28;20034;-75
2024/02/02 12:47:44;;;;;;;;;;;8.40;60.10;;;;;;5014804;28;20056;-75
2024/02/02 12:50:20;;;;;;;8.82;2.30;;;8.40;61.80;;;;;;5030849;28;19909;-74
2024/02/02 12:52:50;;;;;;;11.43;1.88;;;8.40;61.00;;;;;;5030151;28;20028;-74
2024/02/02 12:55:16;;;;;;;7.53;2.13;;;8.40;60.90;;;;;;5011136;28;20025;-74
2024/02/02 12:57:42;;;;;;;9.25;1.52;;;8.40;60.80;;;;;;5032286;28;20029;-75
2024/02/02 13:00:17;;;;;;;;;;;8.40;61.50;;;;;;5014915;28;20021;-75
2024/02/02 13:02:45;;;;;;;7.82;1.30;;;8.40;61.10;;;;;;5014128;28;19913;-75
2024/02/02 13:05:16;;;;;;;8.40;1.50;;;8.40;58.90;;;;;;5029134;28;20033;-74
2024/02/02 13:07:44;;;;;;;9.60;1.67;;;8.40;59.90;;;;;;5025639;28;20129;-74
2024/02/02 13:10:11;;;;;;;6.75;1.25;;;8.40;60.20;;;;;;5015421;28;20529;-74
2024/02/02 13:12:44;;;;;;;6.88;1.38;;;8.50;59.20;;;;;;5014999;28;20022;-75
2024/02/02 13:15:12;;;;;;;6.40;1.42;;;8.50;58.40;;;;;;4994745;28;20021;-75
2024/02/02 13:17:43;;;;;;;6.10;1.05;;;8.50;58.90;;;;;;5011020;28;20022;-75
2024/02/02 13:20:11;;;;;;;12.57;1.38;;;8.50;57.20;;;;;;5016400;28;20033;-74
2024/02/02 13:22:37;;;;;;;9.13;1.65;;;8.40;56.90;;;;;;5028567;28;20562;-74
2024/02/02 13:25:09;;;;;;;;;;;8.40;56.20;;;;;;5030985;28;20139;-74
2024/02/02 13:27:38;;;;;;;8.02;1.38;;;8.40;57.00;;;;;;5012956;28;20300;-74
2024/02/02 13:30:13;;;;;;;11.10;1.50;;;8.40;56.70;;;;;;5030139;28;20049;-75
2024/02/02 13:32:41;;;;;;;9.15;1.50;;;8.50;56.80;;;;;;5012582;28;20037;-74